• Join FlightAware (Why Join?)
  • Login
  • US Flag 
06:21AM EDT


 

Airport Tracker/Info


-or-


 

Live Flight TrackerFlight Track Log ✈ G-VROM ✈ 05-Jul-2012 ✈ EGKK / LGW - KLAS

Flight Track Log - Related Links

Times and Time Zones

All times are in EDT time to prevent confusion due to time zone crossing. See the G-VROM flight status page for this flight to view local times or setup timezone preferences in your user account.

Time Position Orientation Groundspeed Altitude Reporting Facility
EDT Latitude Longitude Course Direction KTS MPH feet Rate Location/Type
06:40AM 51.1384 -0.3055 305° West 209 241 2,600  Level FlightAware
06:40AM 51.1407 -0.3107 323° Northwest 215 247 2,600 1,500 Level FlightAware
06:40AM 51.1536 -0.3260 348° North 224 258 3,100 1,920 Climbing FlightAware
06:40AM 51.1617 -0.3288 North 226 260 3,400 1,980 Climbing FlightAware
06:41AM 51.1687 -0.3284 13° North 226 260 3,600 1,800 Climbing FlightAware ADS-B
06:41AM 51.1739 -0.3265 184° South 226 260 3,700 -1,680 Climbing FlightAware
06:41AM 51.1586 -0.3281 11° North 217 250 3,300 840 Descending FlightAware
06:41AM 51.1802 -0.3215 39° Northeast 229 264 3,800 6,000 Climbing FlightAware ADS-B
06:41AM 51.1843 -0.3162 51° Northeast 228 262 3,900 1,380 Climbing FlightAware ADS-B
06:41AM 51.1888 -0.3072 56° Northeast 228 262 4,100 1,980 Climbing FlightAware
06:41AM 51.1894 -0.3058 64° Northeast 228 262 4,200 1,200 Climbing FlightAware ADS-B
06:41AM 51.1912 -0.2997 75° East 229 264 4,200 720 Level FlightAware ADS-B
06:41AM 51.1926 -0.2917 85° East 232 267 4,300 1,320 Climbing FlightAware ADS-B
06:41AM 51.1931 -0.2831 248° West 234 269 4,400 -1,680 Climbing FlightAware ADS-B
06:41AM 51.1851 -0.3150 78° East 236 272 4,000 900 Descending FlightAware
06:41AM 51.1924 -0.2620 96° East 242 278 4,600 1,980 Climbing FlightAware ADS-B
06:42AM 51.1910 -0.2402 280° West 254 292 4,700 300 Climbing FlightAware ADS-B
06:42AM 51.1912 -0.2421 95° East 251 289 4,700 1,560 Level FlightAware
06:42AM 51.1884 -0.1897 272° West 273 314 5,300 1,440 Climbing FlightAware ADS-B
06:42AM 51.1885 -0.1937 94° East 272 313 5,300 2,220 Level FlightAware
06:42AM 51.1870 -0.1573 92° East 275 316 5,900 3,240 Climbing FlightAware ADS-B
06:43AM 51.1863 -0.1267 91° East 276 318 6,600 2,820 Climbing FlightAware
06:43AM 51.1861 -0.1125 92° East 276 318 7,000 2,280 Climbing FlightAware ADS-B
06:43AM 51.1851 -0.0737 272° West 279 321 7,600 300 Climbing FlightAware ADS-B
06:43AM 51.1859 -0.1044 91° East 277 319 7,100 1,320 Descending FlightAware
06:43AM 51.1854 -0.0549 79° East 285 328 7,800 3,180 Climbing FlightAware ADS-B
06:43AM 51.1867 -0.0445 261° West 288 331 7,900  Climbing FlightAware ADS-B
06:43AM 51.1851 -0.0613 75° East 283 326 7,800 840 Descending FlightAware
06:43AM 51.1908 -0.0284 246° West 296 341 8,000 600 Climbing FlightAware ADS-B
06:43AM 51.1868 -0.0425 57° Northeast 289 333 7,900 1,380 Descending FlightAware
06:44AM 51.2018 -0.0055 232° Southwest 308 354 8,300 480 Climbing FlightAware ADS-B
06:44AM 51.1915 -0.0265 46° Northeast 308 354 8,000 2,220 Descending FlightAware
06:44AM 51.2181 0.0176 218° Southwest 311 358 8,900 1,980 Climbing FlightAware ADS-B
06:44AM 51.2109 0.0085 42° Northeast 308 354 8,600 1,200 Descending FlightAware
06:44AM 51.2348 0.0424 224° Southwest 316 364 9,200 1,800 Climbing FlightAware ADS-B
06:44AM 51.2308 0.0362 43° Northeast 309 356 9,200 1,080 Level FlightAware
06:44AM 51.2522 0.0677 42° Northeast 314 361 9,500 900 Climbing FlightAware ADS-B
06:45AM 51.2554 0.0723 43° Northeast 308 354 9,500 1,020 Level FlightAware
06:45AM 51.2704 0.0943 41° Northeast 316 364 9,800 2,700 Climbing FlightAware ADS-B
06:45AM 51.2883 0.1193 222° Southwest 322 371 10,400 240 Climbing FlightAware ADS-B
06:45AM 51.2721 0.0957 37° Northeast 309 356 9,900 420 Descending FlightAware
06:45AM 51.3042 0.1350 20° North 339 390 10,500 3,180 Climbing FlightAware ADS-B
06:45AM 51.3143 0.1407 10° North 346 398 10,700 1,080 Climbing FlightAware ADS-B
06:45AM 51.3230 0.1432 North 351 404 10,700 960 Level FlightAware
06:45AM 51.3262 0.1434 359° North 354 407 10,800 1,500 Climbing FlightAware ADS-B
06:45AM 51.3353 0.1433 352° North 360 414 10,900 1,080 Climbing FlightAware ADS-B
06:46AM 51.3440 0.1414 343° North 364 419 11,000 900 Climbing FlightAware ADS-B
06:46AM 51.3566 0.1353 168° South 370 426 11,100 -780 Climbing FlightAware ADS-B
06:46AM 51.3334 0.1434 341° North 358 412 10,900 1,260 Descending FlightAware
06:46AM 51.3774 0.1197 332° Northwest 378 435 11,400 1,620 Climbing FlightAware
06:46AM 51.4011 0.0996 332° Northwest 390 449 11,700 660 Climbing FlightAware ADS-B
06:46AM 51.4221 0.0817 331° Northwest 400 460 11,800 960 Climbing FlightAware
06:47AM 51.4509 0.0560 333° Northwest 412 474 12,200 2,040 Climbing FlightAware ADS-B
06:47AM 51.4897 0.0242 330° Northwest 409 471 12,900 1,800 Climbing FlightAware
06:47AM 51.5026 0.0124 332° Northwest 423 487 13,100 1,920 Climbing FlightAware ADS-B
06:48AM 51.5531 -0.0308 151° Southeast 429 494 14,100 1,260 Climbing FlightAware ADS-B
06:48AM 51.5398 -0.0188 331° Northwest 420 483 13,800 1,680 Descending FlightAware
06:48AM 51.6107 -0.0811 151° Southeast 438 504 15,000 1,860 Climbing FlightAware ADS-B
06:48AM 51.5932 -0.0656 332° Northwest 437 503 14,800 1,920 Descending FlightAware
06:49AM 51.6723 -0.1342 150° Southeast 445 512 16,100 1,680 Climbing FlightAware ADS-B
06:49AM 51.6620 -0.1248 332° Northwest 437 503 15,900 1,320 Descending FlightAware
06:49AM 51.7044 -0.1611 331° Northwest 451 519 16,500 2,400 Climbing FlightAware ADS-B
06:49AM 51.7401 -0.1934 333° Northwest 455 524 17,100 1,800 Climbing FlightAware
06:50AM 51.7614 -0.2112 332° Northwest 459 528 17,400 1,620 Climbing FlightAware ADS-B
06:50AM 51.8127 -0.2550 329° Northwest 456 525 18,200 1,740 Climbing FlightAware
06:50AM 51.8196 -0.2617 332° Northwest 464 534 18,300 1,560 Climbing FlightAware ADS-B
06:50AM 51.8371 -0.2765 331° Northwest 466 536 18,600 1,260 Climbing FlightAware ADS-B
06:51AM 51.8714 -0.3069 331° Northwest 469 540 19,000 1,500 Climbing FlightAware
06:51AM 51.9012 -0.3341 332° Northwest 474 545 19,400 1,980 Climbing FlightAware ADS-B
06:51AM 51.9445 -0.3718 331° Northwest 478 550 20,100 1,800 Climbing FlightAware
06:51AM 51.9595 -0.3855 331° Northwest 480 552 20,300 1,500 Climbing FlightAware ADS-B
06:52AM 51.9967 -0.4184 328° Northwest 482 555 20,800 1,500 Climbing FlightAware ADS-B
06:52AM 52.0117 -0.4334 331° Northwest 484 557 21,000 1,800 Climbing FlightAware ADS-B
06:52AM 52.0139 -0.4354 327° Northwest 477 549 21,100 1,680 Climbing FlightAware
06:52AM 52.0705 -0.4960 147° Southeast 488 562 21,900 1,080 Climbing FlightAware ADS-B
06:52AM 52.0610 -0.4858 326° Northwest 489 563 21,700 1,560 Descending FlightAware
06:53AM 52.1281 -0.5599 328° Northwest 494 568 22,700 1,680 Climbing FlightAware ADS-B
06:53AM 52.1380 -0.5701 325° Northwest 496 571 22,800 1,200 Climbing FlightAware
06:53AM 52.1657 -0.6013 326° Northwest 498 573 23,100 1,800 Climbing FlightAware ADS-B
06:53AM 52.2115 -0.6513 328° Northwest 502 578 23,800 1,740 Climbing FlightAware
06:54AM 52.2258 -0.6661 326° Northwest 504 580 24,000 1,320 Climbing FlightAware ADS-B
06:54AM 52.2779 -0.7228 328° Northwest 502 578 24,600 1,320 Climbing FlightAware
06:54AM 52.2964 -0.7420 327° Northwest 511 588 24,800 1,380 Climbing FlightAware ADS-B
06:55AM 52.3487 -0.7970 325° Northwest 517 595 25,400 1,320 Climbing FlightAware
06:55AM 52.3582 -0.8077 327° Northwest 519 597 25,500 1,320 Climbing FlightAware ADS-B
06:55AM 52.4222 -0.8746 150° Southeast 526 605 26,200 1,080 Climbing FlightAware ADS-B
06:55AM 52.4176 -0.8703 327° Northwest 524 603 26,100 1,380 Descending FlightAware
06:56AM 52.4842 -0.9427 331° Northwest 530 610 26,900 1,380 Climbing FlightAware ADS-B
06:56AM 52.4912 -0.9492 327° Northwest 531 611 26,900 1,320 Level FlightAware
06:56AM 52.5489 -1.0112 328° Northwest 537 618 27,600 1,320 Climbing FlightAware ADS-B
06:56AM 52.5621 -1.0246 326° Northwest 537 618 27,700 1,080 Climbing FlightAware
06:57AM 52.6072 -1.0740 328° Northwest 542 624 28,200 1,380 Climbing FlightAware ADS-B
06:57AM 52.6373 -1.1053 327° Northwest 543 625 28,500 1,380 Climbing FlightAware
06:57AM 52.6791 -1.1507 326° Northwest 546 628 28,900 1,500 Climbing FlightAware ADS-B
06:58AM 52.7121 -1.1871 327° Northwest 545 627 29,400 1,680 Climbing FlightAware
06:58AM 52.7462 -1.2238 325° Northwest 544 626 29,800 1,560 Climbing FlightAware ADS-B
06:58AM 52.7703 -1.2514 328° Northwest 542 624 30,200 1,680 Climbing FlightAware
06:58AM 52.8116 -1.2946 326° Northwest 542 624 30,700 1,500 Climbing FlightAware ADS-B
06:59AM 52.8559 -1.3440 328° Northwest 542 624 31,200 1,500 Climbing FlightAware
06:59AM 52.8797 -1.3690 328° Northwest 541 623 31,500 1,260 Climbing FlightAware ADS-B
06:59AM 52.9333 -1.4252 328° Northwest 535 616 32,000 1,320 Climbing FlightAware
06:59AM 52.9440 -1.4364 327° Northwest 541 623 32,200 1,620 Climbing FlightAware ADS-B
07:00AM 53.0159 -1.5152 145° Southeast 538 619 33,000 1,320 Climbing FlightAware ADS-B
07:00AM 53.0140 -1.5130 327° Northwest 537 618 33,000  Level FlightAware
07:01AM 53.0707 -1.5744 324° Northwest 538 619 33,000  Level FlightAware ADS-B
07:01AM 53.0821 -1.5881 327° Northwest 537 618 33,000  Level FlightAware
07:01AM 53.1632 -1.6766 320° Northwest 536 617 33,000  Level FlightAware
07:01AM 53.1665 -1.6811 327° Northwest 537 618 33,000  Level FlightAware ADS-B
07:02AM 53.2359 -1.7567 324° Northwest 538 619 33,000  Level FlightAware
07:02AM 53.2434 -1.7659 326° Northwest 538 619 33,000  Level FlightAware ADS-B
07:02AM 53.3093 -1.8396 332° Northwest 537 618 33,000  Level FlightAware
07:02AM 53.3117 -1.8418 327° Northwest 537 618 33,000  Level FlightAware ADS-B
07:03AM 53.3765 -1.9132 321° Northwest 537 618 33,000  Level FlightAware ADS-B
07:03AM 53.3815 -1.9200 326° Northwest 538 619 33,000  Level FlightAware
07:03AM 53.4088 -1.9509 317° Northwest 536 617 33,000  Level FlightAware ADS-B
07:04AM 53.4468 -2.0102 308° West 532 612 33,000  Level FlightAware
07:04AM 53.4719 -2.0651 301° West 530 610 33,000  Level FlightAware ADS-B
07:04AM 53.4940 -2.1280 13° North 525 604 33,000  Level FlightAware ADS-B
07:04AM 53.4946 -2.1278 295° West 525 604 33,000  Level FlightAware
07:05AM 53.5316 -2.2595 270° West 523 602 33,000  Level FlightAware
07:05AM 53.5316 -2.2596 295° West 523 602 33,000  Level FlightAware ADS-B
07:05AM 53.5698 -2.3949 295° West 523 602 33,000  Level FlightAware
07:06AM 53.6144 -2.5529 295° West 523 602 33,000  Level FlightAware
07:07AM 53.6525 -2.6894 295° West 524 603 33,000  Level FlightAware
07:07AM 53.6815 -2.7929 295° West 525 604 33,000  Level FlightAware
07:08AM 53.7202 -2.9340 295° West 527 606 33,000  Level FlightAware
07:08AM 53.7556 -3.0647 295° West 527 606 33,000  Level FlightAware
07:09AM 53.7907 -3.1917 294° West 529 609 33,000  Level FlightAware
07:10AM 53.8270 -3.3270 297° West 529 609 33,000  Level FlightAware
07:10AM 53.8709 -3.4716 300° West 527 606 33,000  Level FlightAware
07:11AM 53.9121 -3.5938 300° West 531 611 33,000  Level FlightAware
07:11AM 53.9673 -3.7558 300° West 530 610 33,000  Level FlightAware
07:12AM 54.0171 -3.9035 300° West 525 604 33,000  Level FlightAware
07:13AM 54.0599 -4.0296 300° West 529 609 33,000  Level FlightAware
07:13AM 54.1035 -4.1599 300° West 528 608 33,000  Level FlightAware
07:14AM 54.1205 -4.2104 299° West 530 610 33,000  Level FlightAware
07:14AM 54.1886 -4.4172 300° West 528 608 33,000  Level FlightAware
07:15AM 54.2295 -4.5406 299° West 529 609 33,000  Level FlightAware
07:16AM 54.2685 -4.6606 299° West 527 606 33,000  Level FlightAware
07:16AM 54.3176 -4.8101 299° West 528 608 33,000  Level FlightAware
07:17AM 54.3643 -4.9525 299° West 528 608 33,000  Level FlightAware
07:18AM 54.4053 -5.0804 299° West 527 606 33,000  Level FlightAware
07:18AM 54.4529 -5.2299 299° West 525 604 33,000  Level FlightAware
07:19AM 54.4953 -5.3616 298° West 522 601 33,000  Level FlightAware
07:19AM 54.5296 -5.4713 299° West 521 600 33,000  Level FlightAware
07:20AM 54.5770 -5.6216 299° West 520 598 33,000  Level FlightAware
07:20AM 54.6101 -5.7240 298° West 520 598 33,000  Level FlightAware
07:21AM 54.6571 -5.8745 298° West 518 596 33,000  Level FlightAware
07:22AM 54.7017 -6.0212 298° West 522 601 33,000  Level FlightAware
07:22AM 54.7461 -6.1641 298° West 521 600 33,000  Level FlightAware
07:23AM 54.7924 -6.3146 298° West 519 597 33,000  Level FlightAware
07:25AM 54.9041 -6.6819 298° West 516 594 33,000  Level FlightAware
07:25AM 54.9363 -6.7883 297° West 516 594 33,000  Level FlightAware
07:26AM 54.9786 -6.9312 297° West 514 592 33,000  Level FlightAware
07:27AM 55.0177 -7.0635 298° West 514 592 33,000  Level FlightAware
07:27AM 55.0573 -7.1963 297° West 511 588 33,000  Level FlightAware
07:28AM 55.1009 -7.3436 297° West 515 593 33,000  Level FlightAware
07:28AM 55.1381 -7.4735 297° West 515 593 33,000  Level FlightAware
07:29AM 55.1760 -7.6036 297° West 513 590 33,000  Level FlightAware
07:30AM 55.2182 -7.7484 297° West 516 594 33,000  Level FlightAware
07:30AM 55.2568 -7.8825 297° West 514 592 33,000  Level FlightAware
07:31AM 55.2942 -8.0126 296° West 514 592 33,000  Level FlightAware
07:31AM 55.3245 -8.1206 296° West 515 593 33,000  Level FlightAware
07:32AM 55.3791 -8.3149 297° West 513 590 33,000  Level FlightAware
07:33AM 55.4099 -8.4232 296° West 513 590 33,000  Level FlightAware
07:33AM 55.4415 -8.5387 296° West 512 589 33,000  Level FlightAware
07:34AM 55.4924 -8.7222 296° West 512 589 33,000  Level FlightAware
07:35AM 55.5588 -8.9619 292° West 511 588 33,000  Level FlightAware
07:36AM 55.5631 -8.9804 296° West 505 581 33,000  Level FlightAware
07:37AM 55.6471 -9.2881 295° West 506 582 33,000  Level FlightAware
07:37AM 55.6961 -9.4722 294° West 506 582 33,000 -1,200 Level FlightAware
08:06AM 56.9280 -14.9550 294° West -1  Descending FlightAware Direct Aircraft Datalink
08:30AM 58.0000 -20.0000 274° West 464 534 36,000 1,140 Climbing ETMS Enhanced Traffic Management System
08:30AM 58.3709 -20.1965 252° West  Level FlightAware Approximate
08:31AM 58.4141 -20.4157 247° West  Level FlightAware Approximate
08:32AM 58.4569 -20.6354 241° Southwest  Level FlightAware Approximate
08:33AM 58.4992 -20.8556 233° Southwest  Level FlightAware Approximate
08:34AM 58.5413 -21.0763 224° Southwest  Level FlightAware Approximate
08:37AM 58.0618 -21.9558 277° West 464 534 36,000  Level FlightAware Transoceanic
08:37AM 58.4259 -21.5434 274° West  Level FlightAware Approximate
08:39AM 58.5038 -21.9511 273° West  Level FlightAware Approximate
08:40AM 58.5453 -22.1722 273° West  Level FlightAware Approximate
08:41AM 58.5865 -22.3938 272° West  Level FlightAware Approximate
08:42AM 58.6272 -22.6160 272° West  Level FlightAware Approximate
08:43AM 58.6676 -22.8386 271° West  Level FlightAware Approximate
08:44AM 58.7076 -23.0618 271° West  Level FlightAware Approximate
08:45AM 58.7472 -23.2855 270° West  Level FlightAware Approximate
08:46AM 58.7865 -23.5097 270° West  Level FlightAware Approximate
08:47AM 58.8253 -23.7344 269° West  Level FlightAware Approximate
08:48AM 58.8637 -23.9596 269° West  Level FlightAware Approximate
08:49AM 58.9018 -24.1853 268° West  Level FlightAware Approximate
08:50AM 58.9394 -24.4115 267° West  Level FlightAware Approximate
08:51AM 58.9767 -24.6382 267° West  Level FlightAware Approximate
08:52AM 59.0136 -24.8654 266° West  Level FlightAware Approximate
08:53AM 59.0500 -25.0931 266° West  Level FlightAware Approximate
08:54AM 59.0861 -25.3212 265° West  Level FlightAware Approximate
08:55AM 59.1218 -25.5498 264° West  Level FlightAware Approximate
08:56AM 59.1571 -25.7789 264° West  Level FlightAware Approximate
08:57AM 59.1919 -26.0085 263° West  Level FlightAware Approximate
08:58AM 59.2264 -26.2385 262° West  Level FlightAware Approximate
08:59AM 59.2604 -26.4690 261° West  Level FlightAware Approximate
09:00AM 59.2940 -26.7000 261° West  Level FlightAware Approximate
09:01AM 59.3273 -26.9314 260° West  Level FlightAware Approximate
09:02AM 59.3601 -27.1632 259° West  Level FlightAware Approximate
09:03AM 59.3925 -27.3955 258° West  Level FlightAware Approximate
09:04AM 59.4245 -27.6283 257° West  Level FlightAware Approximate
09:05AM 59.4561 -27.8615 256° West  Level FlightAware Approximate
09:06AM 59.4872 -28.0951 255° West  Level FlightAware Approximate
09:07AM 59.5180 -28.3291 254° West  Level FlightAware Approximate
09:08AM 59.5483 -28.5636 253° West  Level FlightAware Approximate
09:09AM 59.5782 -28.7985 252° West  Level FlightAware Approximate
09:10AM 59.6077 -29.0338 251° West  Level FlightAware Approximate
09:11AM 59.6367 -29.2695 250° West  Level FlightAware Approximate
09:12AM 59.6654 -29.5056 249° West  Level FlightAware Approximate
09:13AM 59.6936 -29.7422 247° West  Level FlightAware Approximate
09:14AM 59.7214 -29.9791 246° West  Level FlightAware Approximate
09:15AM 59.7491 -30.2162 244° Southwest  Level FlightAware Approximate
09:16AM 59.7763 -30.4538 243° Southwest  Level FlightAware Approximate
09:17AM 59.8032 -30.6917 241° Southwest  Level FlightAware Approximate
09:18AM 59.8296 -30.9300 240° Southwest  Level FlightAware Approximate
09:19AM 59.8555 -31.1687 238° Southwest  Level FlightAware Approximate
09:20AM 59.8811 -31.4078 236° Southwest  Level FlightAware Approximate
09:21AM 59.9062 -31.6472 234° Southwest  Level FlightAware Approximate
09:22AM 59.9308 -31.8870 232° Southwest  Level FlightAware Approximate
09:23AM 59.9551 -32.1272 230° Southwest  Level FlightAware Approximate
09:24AM 59.9788 -32.3676 228° Southwest  Level FlightAware Approximate
09:25AM 60.0022 -32.6085 225° Southwest  Level FlightAware Approximate
09:26AM 60.0251 -32.8496 223° Southwest  Level FlightAware Approximate
09:27AM 60.0476 -33.0911 220° Southwest  Level FlightAware Approximate
09:28AM 60.0696 -33.3330 217° Southwest  Level FlightAware Approximate
09:29AM 60.0912 -33.5751 214° Southwest  Level FlightAware Approximate
09:30AM 60.1124 -33.8176 211° Southwest  Level FlightAware Approximate
09:31AM 60.1331 -34.0603 208° Southwest  Level FlightAware Approximate
09:32AM 60.1534 -34.3034 205° Southwest  Level FlightAware Approximate
09:33AM 60.1732 -34.5468 202° Southwest  Level FlightAware Approximate
09:34AM 60.1925 -34.7904 198° South  Level FlightAware Approximate
09:35AM 60.2115 -35.0344 195° South  Level FlightAware Approximate
09:36AM 58.1350 -36.0690 261° West -1  Level FlightAware Direct Aircraft Datalink
09:36AM 60.2299 -35.2786 253° West  Level FlightAware Approximate
09:37AM 60.2480 -35.5231 253° West  Level FlightAware Approximate
09:38AM 60.2655 -35.7678 252° West  Level FlightAware Approximate
09:39AM 60.2826 -36.0129 252° West  Level FlightAware Approximate
09:40AM 60.2993 -36.2581 251° West  Level FlightAware Approximate
09:41AM 60.3155 -36.5036 251° West  Level FlightAware Approximate
09:42AM 60.3313 -36.7494 250° West  Level FlightAware Approximate
09:43AM 60.3466 -36.9954 250° West  Level FlightAware Approximate
09:44AM 60.3615 -37.2416 249° West  Level FlightAware Approximate
09:45AM 60.3759 -37.4880 249° West  Level FlightAware Approximate
09:46AM 60.3898 -37.7347 248° West  Level FlightAware Approximate
09:47AM 60.4033 -37.9816 248° West  Level FlightAware Approximate
09:48AM 60.4164 -38.2286 247° West  Level FlightAware Approximate
09:49AM 60.4289 -38.4759 247° West  Level FlightAware Approximate
09:50AM 60.4411 -38.7233 246° West  Level FlightAware Approximate
09:51AM 60.4527 -38.9710 246° West  Level FlightAware Approximate
09:52AM 60.4639 -39.2188 245° Southwest  Level FlightAware Approximate
09:53AM 60.4747 -39.4667 245° Southwest  Level FlightAware Approximate
09:54AM 60.4849 -39.7149 244° Southwest  Level FlightAware Approximate
09:55AM 60.4948 -39.9631 244° Southwest  Level FlightAware Approximate
09:56AM 60.5041 -40.2116 243° Southwest  Level FlightAware Approximate
09:57AM 60.5130 -40.4601 243° Southwest  Level FlightAware Approximate
09:58AM 60.5214 -40.7088 242° Southwest  Level FlightAware Approximate
09:59AM 60.5294 -40.9577 241° Southwest  Level FlightAware Approximate
10:00AM 60.5369 -41.2066 241° Southwest  Level FlightAware Approximate
10:01AM 60.5439 -41.4557 240° Southwest  Level FlightAware Approximate
10:02AM 60.5505 -41.7048 240° Southwest  Level FlightAware Approximate
10:03AM 60.5566 -41.9541 239° Southwest  Level FlightAware Approximate
10:04AM 60.5623 -42.2035 238° Southwest  Level FlightAware Approximate
10:05AM 60.5675 -42.4529 238° Southwest  Level FlightAware Approximate
10:06AM 60.5722 -42.7024 237° Southwest  Level FlightAware Approximate
10:06AM 59.1490 -42.9581 244° Southwest  Level FlightAware Approximate
10:08AM 59.1864 -43.3544 243° Southwest  Level FlightAware Approximate
10:09AM 59.2080 -43.5903 242° Southwest  Level FlightAware Approximate
10:10AM 59.2292 -43.8264 242° Southwest  Level FlightAware Approximate
10:11AM 59.2500 -44.0629 241° Southwest  Level FlightAware Approximate
10:12AM 59.2703 -44.2996 240° Southwest  Level FlightAware Approximate
10:13AM 59.2902 -44.5366 240° Southwest  Level FlightAware Approximate
10:14AM 59.3097 -44.7738 239° Southwest  Level FlightAware Approximate
10:15AM 59.3288 -45.0114 238° Southwest  Level FlightAware Approximate
10:16AM 59.3474 -45.2492 237° Southwest  Level FlightAware Approximate
10:17AM 59.3656 -45.4872 236° Southwest  Level FlightAware Approximate
10:18AM 59.3833 -45.7255 236° Southwest  Level FlightAware Approximate
10:19AM 59.4006 -45.9641 235° Southwest  Level FlightAware Approximate
10:20AM 59.4175 -46.2029 234° Southwest  Level FlightAware Approximate
10:21AM 59.4340 -46.4419 233° Southwest  Level FlightAware Approximate
10:22AM 59.4500 -46.6812 232° Southwest  Level FlightAware Approximate
10:23AM 59.4655 -46.9207 231° Southwest  Level FlightAware Approximate
10:24AM 59.4807 -47.1604 230° Southwest  Level FlightAware Approximate
10:25AM 59.4954 -47.4003 229° Southwest  Level FlightAware Approximate
10:26AM 59.5096 -47.6404 228° Southwest  Level FlightAware Approximate
10:27AM 59.5234 -47.8807 227° Southwest  Level FlightAware Approximate
10:28AM 59.5368 -48.1213 227° Southwest  Level FlightAware Approximate
10:29AM 59.5497 -48.3620 225° Southwest  Level FlightAware Approximate
10:30AM 59.5622 -48.6029 224° Southwest  Level FlightAware Approximate
10:31AM 59.5742 -48.8439 223° Southwest  Level FlightAware Approximate
10:32AM 59.5858 -49.0851 222° Southwest  Level FlightAware Approximate
10:33AM 59.5970 -49.3265 221° Southwest  Level FlightAware Approximate
10:34AM 59.6077 -49.5681 220° Southwest  Level FlightAware Approximate
10:35AM 59.6180 -49.8098 219° Southwest  Level FlightAware Approximate
10:36AM 59.6278 -50.0516 218° Southwest  Level FlightAware Approximate
10:37AM 59.6372 -50.2936 217° Southwest  Level FlightAware Approximate
10:38AM 59.6461 -50.5357 216° Southwest  Level FlightAware Approximate
10:39AM 59.6546 -50.7780 214° Southwest  Level FlightAware Approximate
10:40AM 59.6574 -51.0208 213° Southwest  Level FlightAware Approximate
10:41AM 59.6597 -51.2636 212° Southwest  Level FlightAware Approximate
10:42AM 59.6616 -51.5065 211° Southwest  Level FlightAware Approximate
10:43AM 59.6630 -51.7494 209° Southwest  Level FlightAware Approximate
10:44AM 59.6640 -51.9923 208° Southwest  Level FlightAware Approximate
10:45AM 59.6646 -52.2352 207° Southwest  Level FlightAware Approximate
10:46AM 59.6646 -52.4781 205° Southwest  Level FlightAware Approximate
10:47AM 59.6643 -52.7210 204° Southwest  Level FlightAware Approximate
10:48AM 59.6635 -52.9640 203° Southwest  Level FlightAware Approximate
10:49AM 59.6622 -53.2068 201° Southwest  Level FlightAware Approximate
10:50AM 59.6605 -53.4497 200° South  Level FlightAware Approximate
10:51AM 59.6584 -53.6926 198° South  Level FlightAware Approximate
10:52AM 59.6558 -53.9354 197° South  Level FlightAware Approximate
10:53AM 59.6527 -54.1782 195° South  Level FlightAware Approximate
10:54AM 59.6492 -54.4209 194° South  Level FlightAware Approximate
10:55AM 59.6453 -54.6636 192° South  Level FlightAware Approximate
10:56AM 59.6409 -54.9062 191° South  Level FlightAware Approximate
10:57AM 59.6360 -55.1487 189° South  Level FlightAware Approximate
10:58AM 59.6307 -55.3912 188° South  Level FlightAware Approximate
10:59AM 59.6250 -55.6336 186° South  Level FlightAware Approximate
11:00AM 59.6188 -55.8759 185° South  Level FlightAware Approximate
11:01AM 59.6122 -56.1181 183° South  Level FlightAware Approximate
11:02AM 59.6051 -56.3602 181° South  Level FlightAware Approximate
11:03AM 59.5976 -56.6023 180° South  Level FlightAware Approximate
11:04AM 59.5896 -56.8442 178° South  Level FlightAware Approximate
11:05AM 59.4991 -57.0191 177° South  Level FlightAware Approximate
11:06AM 59.4084 -57.1932 176° South  Level FlightAware Approximate
11:07AM 59.3174 -57.3663 175° South  Level FlightAware Approximate
11:08AM 59.2262 -57.5384 173° South  Level FlightAware Approximate
11:09AM 59.1348 -57.7097 172° South  Level FlightAware Approximate
11:11AM 54.5833 -56.5833 244° Southwest 460 529 36,000  Level Gander Center
11:11AM 54.5500 -56.7000 247° West 460 529 36,000  Level Gander Center
11:12AM 54.5000 -56.9000 256° West 460 529 36,000  Level Gander Center
11:13AM 54.4667 -57.1333 253° West 460 529 36,000  Level Gander Center
11:14AM 54.4333 -57.3167 256° West 450 518 36,000  Level Gander Center
11:15AM 54.4000 -57.5500 245° Southwest 450 518 36,000  Level Gander Center
11:16AM 54.3500 -57.7333 250° West 450 518 36,000  Level Gander Center
11:17AM 54.3000 -57.9667 251° West 450 518 36,000  Level Gander Center
11:18AM 54.2667 -58.1333 254° West 450 518 36,000  Level Gander Center
11:19AM 54.2333 -58.3333 247° West 450 518 36,000  Level Gander Center
11:20AM 54.1833 -58.5333 254° West 450 518 36,000  Level Gander Center
11:21AM 54.1500 -58.7333 255° West 440 506 36,000  Level Gander Center
11:22AM 54.1167 -58.9500 247° West 440 506 36,000  Level Gander Center
11:23AM 54.0667 -59.1500 247° West 440 506 36,000  Level Gander Center
11:24AM 54.0167 -59.3500 254° West 440 506 36,000  Level Gander Center
11:25AM 53.9833 -59.5500 247° West 440 506 36,000  Level Gander Center
11:26AM 53.9333 -59.7500 251° West 440 506 36,000  Level Gander Center
11:27AM 53.9000 -59.9167 254° West 440 506 36,000  Level Gander Center
11:28AM 53.8667 -60.1167 247° West 440 506 36,000  Level Gander Center
11:29AM 53.8167 -60.3167 247° West 450 518 36,000  Level Gander Center
11:30AM 53.7667 -60.5167 254° West 450 518 36,000  Level Gander Center
11:31AM 53.7333 -60.7167 247° West 450 518 36,000  Level Gander Center
11:32AM 53.6833 -60.9167 247° West 450 518 36,000  Level Gander Center
11:33AM 53.6333 -61.1167 254° West 440 506 36,000  Level Gander Center
11:34AM 53.6000 -61.3167 245° Southwest 440 506 36,000  Level Gander Center
11:35AM 53.5500 -61.5000 253° West 440 506 36,000  Level Gander Center
11:36AM 53.5167 -61.6833 249° West 440 506 36,000  Level Gander Center
11:37AM 53.4667 -61.9000 243° Southwest 450 518 36,000  Level Gander Center
11:38AM 53.4167 -62.0667 249° West 450 518 36,000  Level Gander Center
11:39AM 53.3667 -62.2833 243° Southwest 450 518 36,000  Level Gander Center
11:40AM 53.3167 -62.4500 250° West 450 518 36,000  Level Gander Center
11:41AM 53.2667 -62.6833 246° West 460 529 36,000  Level Gander Center
11:42AM 53.2167 -62.8667 247° West 460 529 36,000  Level Gander Center
11:43AM 53.1667 -63.0667 241° Southwest 460 529 36,000  Level Gander Center
11:45AM 53.0667 -63.3667 255° West 460 529 36,000  Level Montreal Center
11:46AM 53.0333 -63.5667 246° West 470 541 36,000  Level Montreal Center
11:47AM 52.9833 -63.7500 249° West 470 541 36,000  Level Montreal Center
11:48AM 52.9333 -63.9667 243° Southwest 470 541 36,000  Level Montreal Center
11:49AM 52.8667 -64.1833 249° West 480 552 36,000  Level Montreal Center
11:50AM 52.8167 -64.4000 246° West 480 552 36,000  Level Montreal Center
11:51AM 52.7667 -64.5833 248° West 480 552 36,000  Level Montreal Center
11:52AM 52.7167 -64.7833 249° West 490 564 36,000  Level Montreal Center
11:53AM 52.6667 -65.0000 239° Southwest 490 564 36,000  Level Montreal Center
11:54AM 52.6000 -65.1833 251° West 490 564 36,000  Level Montreal Center
11:55AM 52.5500 -65.4167 239° Southwest 490 564 36,000  Level Montreal Center
11:56AM 52.4833 -65.6000 251° West 490 564 36,000  Level Montreal Center
11:57AM 52.4333 -65.8333 239° Southwest 490 564 36,000  Level Montreal Center
11:58AM 52.3667 -66.0167 248° West 490 564 36,000  Level Montreal Center
11:59AM 52.3167 -66.2167 243° Southwest 490 564 36,000  Level Montreal Center
12:00PM 52.2500 -66.4333 239° Southwest 480 552 36,000  Level Montreal Center
12:01PM 52.1833 -66.6167 248° West 480 552 36,000  Level Montreal Center
12:02PM 52.1333 -66.8167 244° Southwest 480 552 36,000  Level Montreal Center
12:03PM 52.0833 -66.9833 244° Southwest 480 552 36,000  Level Montreal Center
12:04PM 52.0167 -67.2000 248° West 480 552 36,000  Level Montreal Center
12:05PM 51.9667 -67.4000 242° Southwest 480 552 36,000  Level Montreal Center
12:06PM 51.9000 -67.6000 240° Southwest 470 541 36,000  Level Montreal Center
12:07PM 51.8333 -67.7833 248° West 470 541 36,000  Level Montreal Center
12:08PM 51.7833 -67.9833 244° Southwest 480 552 36,000 240 Level Montreal Center
12:09PM 51.7333 -68.1500 242° Southwest 480 552 36,500 540 Climbing Montreal Center
12:10PM 51.6667 -68.3500 242° Southwest 470 541 37,100 480 Climbing Montreal Center
12:11PM 51.6000 -68.5500 246° West 470 541 37,500 420 Climbing Montreal Center
12:12PM 51.5500 -68.7333 242° Southwest 480 552 38,000 240 Climbing Montreal Center
12:13PM 51.4833 -68.9333 242° Southwest 480 552 38,000  Level Montreal Center
12:14PM 51.4167 -69.1333 242° Southwest 480 552 38,000  Level Montreal Center
12:15PM 51.3500 -69.3333 237° Southwest 480 552 38,000  Level Montreal Center
12:16PM 51.2833 -69.5000 244° Southwest 480 552 38,000  Level Montreal Center
12:17PM 51.2333 -69.6667 251° West 480 552 38,000  Level Montreal Center
12:18PM 51.1833 -69.9000 238° Southwest 470 541 38,000  Level Montreal Center
12:19PM 51.1167 -70.0667 247° West 470 541 38,000  Level Montreal Center
12:20PM 51.0667 -70.2500 242° Southwest 470 541 38,000  Level Montreal Center
12:21PM 51.0000 -70.4500 248° West 470 541 38,000  Level Montreal Center
12:22PM 50.9500 -70.6500 247° West 470 541 38,000  Level Montreal Center
12:23PM 50.9000 -70.8333 245° Southwest 470 541 38,000  Level Montreal Center
12:24PM 50.8500 -71.0000 246° West 470 541 38,000  Level Montreal Center
12:25PM 50.7833 -71.2333 242° Southwest 470 541 38,000  Level Montreal Center
12:26PM 50.7333 -71.3833 249° West 470 541 38,000  Level Montreal Center
12:27PM 50.6833 -71.5833 240° Southwest 470 541 38,000  Level Montreal Center
12:28PM 50.6167 -71.7667 249° West 470 541 38,000  Level Montreal Center
12:29PM 50.5667 -71.9667 247° West 470 541 38,000  Level Montreal Center
12:30PM 50.5167 -72.1500 242° Southwest 470 541 38,000  Level Montreal Center
12:31PM 50.4500 -72.3500 247° West 470 541 38,000  Level Montreal Center
12:32PM 50.4000 -72.5333 240° Southwest 470 541 38,000  Level Montreal Center
12:33PM 50.3333 -72.7167 249° West 470 541 38,000  Level Montreal Center
12:34PM 50.2833 -72.9167 240° Southwest 470 541 38,000  Level Montreal Center
12:35PM 50.2167 -73.1000 247° West 480 552 38,000  Level Montreal Center
12:36PM 50.1667 -73.2833 241° Southwest 470 541 38,000  Level Montreal Center
12:37PM 50.1000 -73.4667 249° West 470 541 38,000  Level Montreal Center
12:38PM 50.0500 -73.6667 241° Southwest 470 541 38,000  Level Montreal Center
12:39PM 49.9833 -73.8500 241° Southwest 470 541 38,000  Level Montreal Center
12:40PM 49.9167 -74.0333 247° West 470 541 38,000  Level Montreal Center
12:41PM 49.8667 -74.2167 247° West 480 552 38,000  Level Montreal Center
12:42PM 49.8167 -74.4000 241° Southwest 470 541 38,000  Level Montreal Center
12:43PM 49.7500 -74.5833 238° Southwest 470 541 38,000  Level Montreal Center
12:44PM 49.6833 -74.7500 243° Southwest 470 541 38,000  Level Montreal Center
12:45PM 49.6167 -74.9500 245° Southwest 470 541 38,000  Level Montreal Center
12:46PM 49.5667 -75.1167 241° Southwest 470 541 38,000  Level Montreal Center
12:47PM 49.5000 -75.3000 238° Southwest 470 541 38,000  Level Montreal Center
12:48PM 49.4333 -75.4667 247° West 470 541 38,000  Level Montreal Center
12:49PM 49.3833 -75.6500 241° Southwest 470 541 38,000  Level Montreal Center
12:50PM 49.3167 -75.8333 241° Southwest 470 541 38,000  Level Montreal Center
12:51PM 49.2500 -76.0167 241° Southwest 470 541 38,000  Level Montreal Center
12:52PM 49.1833 -76.2000 247° West 470 541 38,000  Level Montreal Center
12:53PM 49.1333 -76.3833 236° Southwest 470 541 38,000  Level Montreal Center
12:54PM 49.0667 -76.5333 241° Southwest 460 529 38,000  Level Montreal Center
12:55PM 49.0000 -76.7167 246° West 460 529 38,000  Level Montreal Center
12:56PM 48.9500 -76.8833 241° Southwest 460 529 38,000  Level Montreal Center
12:57PM 48.8833 -77.0667 230° Southwest 460 529 38,000  Level Montreal Center
12:58PM 48.8000 -77.2167 248° West 460 529 38,000  Level Montreal Center
12:59PM 48.7500 -77.4000 239° Southwest 460 529 38,000  Level Montreal Center
01:00PM 48.6833 -77.5667 248° West 460 529 38,000  Level Montreal Center
01:01PM 48.6333 -77.7500 236° Southwest 460 529 38,000  Level Montreal Center
01:02PM 48.5667 -77.9000 239° Southwest 460 529 38,000  Level Montreal Center
01:03PM 48.5000 -78.0667 241° Southwest 450 518 38,000  Level Montreal Center
01:04PM 48.4333 -78.2500 239° Southwest 450 518 38,000  Level Montreal Center
01:05PM 48.3667 -78.4167 243° Southwest 450 518 38,000  Level Montreal Center
01:06PM 48.3167 -78.5667 236° Southwest 450 518 38,000  Level Montreal Center
01:07PM 48.2500 -78.7167 239° Southwest 450 518 38,000  Level Montreal Center
01:08PM 48.1833 -78.8833 248° West 450 518 38,000  Level Montreal Center
01:09PM 48.1333 -79.0667 246° West 450 518 38,000  Level Montreal Center
01:10PM 48.0833 -79.2333 239° Southwest 440 506 38,000  Level Montreal Center
01:11PM 48.0167 -79.4000 248° West 440 506 38,000  Level Montreal Center
01:12PM 47.9667 -79.5833 253° West 440 506 38,000  Level Montreal Center
01:13PM 47.9333 -79.7500 239° Southwest 440 506 38,000  Level Montreal Center
01:14PM 47.8667 -79.9167 248° West 450 518 38,000  Level Montreal Center
01:15PM 47.8167 -80.1000 250° West 440 506 38,000  Level Montreal Center
01:16PM 47.7833 -80.2333 242° Southwest 450 518 38,000  Level Montreal Center
01:17PM 47.7167 -80.4167 246° West 440 506 38,000  Level Montreal Center
01:18PM 47.6667 -80.5833 246° West 440 506 38,000  Level Montreal Center
01:19PM 47.6167 -80.7500 246° West 440 506 38,000  Level Montreal Center
01:20PM 47.5667 -80.9167 239° Southwest 440 506 38,000  Level Montreal Center
01:21PM 47.5000 -81.0833 252° West 440 506 38,000  Level Montreal Center
01:22PM 47.4667 -81.2333 244° Southwest 440 506 38,000  Level Montreal Center
01:23PM 47.4000 -81.4333 241° Southwest 440 506 38,000  Level Montreal Center
01:24PM 47.3500 -81.5667 246° West 440 506 38,000  Level Montreal Center
01:25PM 47.3000 -81.7333 246° West 440 506 38,000  Level Montreal Center
01:26PM 47.2500 -81.9000 240° Southwest 440 506 38,000  Level Montreal Center
01:27PM 47.1833 -82.0667 240° Southwest 450 518 38,000  Level Montreal Center
01:28PM 47.1167 -82.2333 254° West 450 518 38,000  Level Montreal Center
01:29PM 47.0833 -82.4000 240° Southwest 450 518 38,000  Level Montreal Center
01:30PM 47.0167 -82.5667 246° West 450 518 38,000  Level Montreal Center
01:31PM 46.9667 -82.7333 244° Southwest 450 518 38,000  Level Montreal Center
01:32PM 46.9167 -82.8833 242° Southwest 450 518 38,000  Level Montreal Center
01:33PM 46.8500 -83.0667 241° Southwest 450 518 38,000  Level Montreal Center
01:34PM 46.8000 -83.2000 244° Southwest 450 518 38,000  Level Montreal Center
01:35PM 46.7333 -83.4000 238° Southwest 450 518 38,000  Level Montreal Center
01:36PM 46.6833 -83.5167 244° Southwest 450 518 38,000  Level Montreal Center
01:37PM 46.6500 -83.6167 246° West 450 518 38,000  Level Toronto Center
01:38PM 46.6000 -83.7833 240° Southwest 450 518 38,000  Level Toronto Center
01:39PM 46.5333 -83.9500 240° Southwest 450 518 38,000  Level Toronto Center
01:40PM 46.4667 -84.1167 240° Southwest 450 518 38,000  Level Toronto Center
01:41PM 46.4000 -84.2833 244° Southwest 450 518 38,000  Level Toronto Center
01:42PM 46.3500 -84.4333 240° Southwest 460 529 38,000  Level Toronto Center
01:43PM 46.2833 -84.6000 228° Southwest 460 529 38,000  Level Toronto Center
01:44PM 46.2000 -84.7333 237° Southwest 460 529 38,000  Level Toronto Center
01:45PM 46.1333 -84.8833 247° West 460 529 38,000  Level Toronto Center
01:46PM 46.0964 -85.0075 238° Southwest 458 527 38,000  Level Minneapolis Center
01:47PM 46.0283 -85.1636 237° Southwest 459 528 38,000  Level Minneapolis Center
01:48PM 45.9578 -85.3169 236° Southwest 462 532 38,000  Level Minneapolis Center
01:49PM 45.8722 -85.4986 236° Southwest 461 531 38,000  Level Minneapolis Center
01:50PM 45.8003 -85.6514 236° Southwest 463 533 38,000  Level Minneapolis Center
01:51PM 45.7283 -85.8042 236° Southwest 464 534 38,000  Level Minneapolis Center
01:52PM 45.6564 -85.9547 237° Southwest 463 533 38,000  Level Minneapolis Center
01:53PM 45.5872 -86.1044 236° Southwest 459 528 38,000  Level Minneapolis Center
01:54PM 45.5019 -86.2825 236° Southwest 457 526 38,000  Level Minneapolis Center
01:55PM 45.4300 -86.4342 236° Southwest 463 533 38,000  Level Minneapolis Center
01:56PM 45.3578 -86.5847 235° Southwest 465 535 38,000  Level Minneapolis Center
01:57PM 45.2847 -86.7339 235° Southwest 464 534 38,000  Level Minneapolis Center
01:58PM 45.1978 -86.9131 235° Southwest 464 534 38,000  Level Minneapolis Center
01:59PM 45.1247 -87.0622 235° Southwest 465 535 38,000  Level Minneapolis Center
02:00PM 45.0508 -87.2092 235° Southwest 463 533 38,000  Level Minneapolis Center
02:01PM 44.9764 -87.3600 235° Southwest 466 536 38,000  Level Minneapolis Center
02:02PM 44.8881 -87.5386 235° Southwest 466 536 38,000  Level Minneapolis Center
02:03PM 44.8139 -87.6853 235° Southwest 464 534 38,000  Level Minneapolis Center
02:04PM 44.7397 -87.8322 234° Southwest 463 533 38,000  Level Minneapolis Center
02:05PM 44.6639 -87.9803 235° Southwest 463 533 38,000  Level Minneapolis Center
02:07PM 44.5894 -88.1275 244° Southwest 463 533 38,000  Level Minneapolis Center
02:08PM 44.5258 -88.3128 250° West 449 517 38,000  Level Minneapolis Center
02:09PM 44.4811 -88.4800 250° West 456 525 38,000  Level Minneapolis Center
02:10PM 44.4383 -88.6464 250° West 455 524 38,000  Level Minneapolis Center
02:11PM 44.3958 -88.8094 250° West 451 519 38,000  Level Minneapolis Center
02:12PM 44.3311 -89.0581 249° West 453 521 38,000  Level Minneapolis Center
02:13PM 44.2858 -89.2267 250° West 458 527 38,000  Level Minneapolis Center
02:14PM 44.2339 -89.4219 249° West 460 529 38,000  Level Minneapolis Center
02:15PM 44.1897 -89.5844 249° West 453 521 38,000  Level Minneapolis Center
02:16PM 44.1461 -89.7461 249° West 449 517 38,000  Level Minneapolis Center
02:17PM 44.1008 -89.9092 249° West 451 519 38,000  Level Minneapolis Center
02:18PM 44.0486 -90.0989 249° West 451 519 38,000  Level Minneapolis Center
02:19PM 44.0033 -90.2600 249° West 450 518 38,000  Level Minneapolis Center
02:20PM 43.9583 -90.4222 249° West 450 518 38,000  Level Minneapolis Center
02:22PM 43.9117 -90.5881 248° West 450 518 38,000  Level Minneapolis Center
02:23PM 43.8656 -90.7486 249° West 453 521 38,000  Level Minneapolis Center
02:24PM 43.8117 -90.9408 249° West 451 519 38,000  Level Minneapolis Center
02:25PM 43.7658 -91.1017 248° West 453 521 38,000  Level Minneapolis Center
02:26PM 43.7194 -91.2606 248° West 453 521 38,000  Level Minneapolis Center
02:27PM 43.6736 -91.4200 248° West 452 520 38,000  Level Minneapolis Center
02:28PM 43.6172 -91.6097 248° West 452 520 38,000  Level Minneapolis Center
02:29PM 43.5706 -91.7692 248° West 453 521 38,000  Level Minneapolis Center
02:30PM 43.5239 -91.9278 248° West 453 521 38,000  Level Minneapolis Center
02:31PM 43.4769 -92.0864 247° West 453 521 38,000  Level Minneapolis Center
02:32PM 43.4186 -92.2775 248° West 456 525 38,000  Level Minneapolis Center
02:33PM 43.3708 -92.4375 247° West 458 527 38,000  Level Minneapolis Center
02:34PM 43.3222 -92.5969 247° West 458 527 38,000  Level Minneapolis Center
02:35PM 43.2733 -92.7572 247° West 459 528 38,000  Level Minneapolis Center
02:36PM 43.2122 -92.9500 248° West 461 531 38,000  Level Minneapolis Center
02:37PM 43.1625 -93.1156 246° West 465 535 38,000  Level Minneapolis Center
02:38PM 43.1111 -93.2731 249° West 464 534 38,000  Level Minneapolis Center
02:39PM 43.0647 -93.4361 246° West 465 535 38,000  Level Minneapolis Center
02:40PM 43.0003 -93.6322 246° West 475 547 38,000  Level Minneapolis Center
02:41PM 42.9478 -93.7950 247° West 474 545 38,000  Level Minneapolis Center
02:42PM 42.8978 -93.9583 247° West 472 543 38,000  Level Minneapolis Center
02:43PM 42.8464 -94.1206 246° West 471 542 38,000  Level Minneapolis Center
02:44PM 42.7839 -94.3133 246° West 470 541 38,000  Level Minneapolis Center
02:45PM 42.7319 -94.4742 246° West 469 540 38,000  Level Minneapolis Center
02:47PM 42.6758 -94.6464 246° West 471 542 38,000  Level Minneapolis Center
02:48PM 42.6222 -94.8078 246° West 470 541 38,000  Level Minneapolis Center
02:49PM 42.5686 -94.9703 246° West 472 543 38,000  Level Minneapolis Center
02:50PM 42.5036 -95.1664 246° West 475 547 38,000  Level Minneapolis Center
02:51PM 42.4494 -95.3292 245° Southwest 475 547 38,000  Level Minneapolis Center
02:52PM 42.3942 -95.4928 246° West 478 550 38,000  Level Minneapolis Center
02:53PM 42.3389 -95.6567 245° Southwest 479 551 38,000  Level Minneapolis Center
02:54PM 42.2836 -95.8161 245° Southwest 475 547 38,000  Level Minneapolis Center
02:55PM 42.2169 -96.0108 245° Southwest 477 549 38,000  Level Minneapolis Center
02:56PM 42.1603 -96.1747 245° Southwest 480 552 38,000  Level Minneapolis Center
02:57PM 42.1042 -96.3375 245° Southwest 482 555 38,000  Level Minneapolis Center
02:58PM 42.0475 -96.5014 245° Southwest 485 558 38,000  Level Minneapolis Center
02:59PM 41.9789 -96.6967 244° Southwest 485 558 38,000  Level Minneapolis Center
03:00PM 41.9208 -96.8586 245° Southwest 483 556 38,000  Level Minneapolis Center
03:01PM 41.8644 -97.0197 244° Southwest 482 555 38,000  Level Minneapolis Center
03:02PM 41.8067 -97.1803 244° Southwest 481 554 38,000  Level Minneapolis Center
03:03PM 41.7378 -97.3719 244° Southwest 479 551 38,000  Level Minneapolis Center
03:04PM 41.6797 -97.5311 244° Southwest 478 550 38,000  Level Minneapolis Center
03:05PM 41.6225 -97.6892 244° Southwest 475 547 38,000  Level Minneapolis Center
03:06PM 41.5647 -97.8467 244° Southwest 475 547 38,000  Level Minneapolis Center
03:07PM 41.5067 -98.0056 244° Southwest 476 548 38,000  Level Minneapolis Center
03:08PM 41.4403 -98.1833 244° Southwest 477 549 38,000  Level Minneapolis Center
03:09PM 41.3822 -98.3425 253° West 478 550 38,000  Level Minneapolis Center
03:11PM 41.3386 -98.5281 256° West 492 566 38,000  Level Minneapolis Center
03:12PM 41.3058 -98.6986 256° West 484 557 38,000  Level Minneapolis Center
03:12PM 41.2836 -98.8214 254° West 484 557 38,000  Level Denver Center
03:13PM 41.2475 -98.9875 253° West 488 562 38,000  Level Denver Center
03:14PM 41.2094 -99.1558 254° West 483 556 38,000  Level Denver Center
03:15PM 41.1731 -99.3239 254° West 479 551 38,000  Level Denver Center
03:16PM 41.1300 -99.5272 254° West 476 548 38,000  Level Denver Center
03:17PM 41.0953 -99.6881 254° West 476 548 38,000  Level Denver Center
03:18PM 41.0539 -99.8769 254° West 477 549 38,000  Level Denver Center
03:19PM 41.0181 -100.0397 254° West 480 552 38,000  Level Denver Center
03:20PM 40.9761 -100.2283 254° West 479 551 38,000  Level Denver Center
03:21PM 40.9403 -100.3897 254° West 479 551 38,000  Level Denver Center
03:22PM 40.8989 -100.5764 253° West 477 549 38,000  Level Denver Center
03:24PM 40.8549 -100.7620 253° West 480 552 38,000  Level FlightAware ADS-B
03:24PM 40.8339 -100.8540 253° West 481 554 38,000  Level FlightAware ADS-B
03:25PM 40.8135 -100.9410 253° West 481 554 38,000  Level FlightAware ADS-B
03:25PM 40.7940 -101.0250 253° West 481 554 38,000  Level FlightAware ADS-B
03:26PM 40.7743 -101.1120 253° West 481 554 38,000  Level FlightAware ADS-B
03:26PM 40.7546 -101.1960 253° West 482 555 38,000  Level FlightAware ADS-B
03:27PM 40.7341 -101.2830 253° West 482 555 38,000  Level FlightAware ADS-B
03:27PM 40.7133 -101.3730 252° West 482 555 38,000  Level FlightAware ADS-B
03:28PM 40.6931 -101.4570 253° West 483 556 38,000  Level FlightAware ADS-B
03:28PM 40.6726 -101.5440 253° West 484 557 38,000  Level FlightAware ADS-B
03:29PM 40.6523 -101.6320 253° West 484 557 38,000  Level FlightAware ADS-B
03:29PM 40.6323 -101.7160 253° West 486 559 38,000  Level FlightAware ADS-B
03:30PM 40.6117 -101.8040 253° West 487 560 38,000  Level FlightAware ADS-B
03:30PM 40.5910 -101.8910 252° West 486 559 38,000  Level FlightAware ADS-B
03:31PM 40.5703 -101.9750 252° West 486 559 38,000  Level FlightAware ADS-B
03:31PM 40.5494 -102.0590 253° West 486 559 38,000  Level FlightAware ADS-B
03:32PM 40.5278 -102.1490 252° West 486 559 38,000  Level FlightAware ADS-B
03:32PM 40.5069 -102.2340 252° West 487 560 38,000  Level FlightAware ADS-B
03:33PM 40.4855 -102.3210 252° West 488 562 38,000  Level FlightAware ADS-B
03:33PM 40.4648 -102.4050 252° West 488 562 38,000  Level FlightAware ADS-B
03:34PM 40.4438 -102.4920 252° West 487 560 38,000  Level FlightAware ADS-B
03:34PM 40.4230 -102.5770 252° West 486 559 38,000  Level FlightAware ADS-B
03:35PM 40.3962 -102.6860 252° West 485 558 38,000  Level FlightAware ADS-B
03:36PM 40.3755 -102.7700 252° West 484 557 38,000  Level FlightAware ADS-B
03:36PM 40.3545 -102.8530 252° West 485 558 38,000  Level FlightAware ADS-B
03:37PM 40.3308 -102.9480 252° West 486 559 38,000  Level FlightAware ADS-B
03:37PM 40.3081 -103.0380 252° West 488 562 38,000  Level FlightAware ADS-B
03:38PM 40.2865 -103.1240 252° West 488 562 38,000  Level FlightAware ADS-B
03:38PM 40.2648 -103.2110 252° West 490 564 38,000  Level FlightAware ADS-B
03:39PM 40.2434 -103.2960 251° West 490 564 38,000  Level FlightAware ADS-B
03:39PM 40.2214 -103.3800 251° West 490 564 38,000  Level FlightAware ADS-B
03:40PM 40.1994 -103.4640 251° West 491 565 38,000  Level FlightAware ADS-B
03:40PM 40.1776 -103.5480 252° West 492 566 38,000  Level FlightAware ADS-B
03:41PM 40.1554 -103.6350 251° West 493 567 38,000  Level FlightAware ADS-B
03:41PM 40.1323 -103.7230 251° West 492 566 38,000  Level FlightAware ADS-B
03:42PM 40.1100 -103.8100 251° West 493 567 38,000  Level FlightAware ADS-B
03:42PM 40.0879 -103.8950 251° West 493 567 38,000  Level FlightAware ADS-B
03:43PM 40.0658 -103.9790 251° West 493 567 38,000  Level FlightAware ADS-B
03:43PM 40.0434 -104.0630 251° West 492 566 38,000  Level FlightAware ADS-B
03:44PM 40.0212 -104.1480 251° West 493 567 38,000  Level FlightAware ADS-B
03:44PM 39.9988 -104.2340 251° West 492 566 38,000  Level FlightAware ADS-B
03:45PM 39.9764 -104.3180 251° West 491 565 38,000  Level FlightAware ADS-B
03:45PM 39.9539 -104.4020 251° West 491 565 38,000  Level FlightAware ADS-B
03:46PM 39.9313 -104.4880 251° West 490 564 38,000  Level FlightAware ADS-B
03:46PM 39.9104 -104.5660 247° West 489 563 38,000  Level FlightAware ADS-B
03:46PM 39.9022 -104.5910 245° Southwest 488 562 38,000  Level FlightAware ADS-B
03:47PM 39.8839 -104.6410 240° Southwest 485 558 38,000  Level FlightAware ADS-B
03:47PM 39.8526 -104.7110 241° Southwest 482 555 38,000  Level FlightAware ADS-B
03:48PM 39.8199 -104.7870 240° Southwest 482 555 38,000  Level FlightAware ADS-B
03:48PM 39.7868 -104.8630 241° Southwest 483 556 38,000  Level FlightAware ADS-B
03:49PM 39.7529 -104.9410 239° Southwest 482 555 38,000  Level FlightAware ADS-B
03:49PM 39.7159 -105.0200 238° Southwest 482 555 38,000  Level FlightAware ADS-B
03:50PM 39.6809 -105.0940 239° Southwest 481 554 38,000  Level FlightAware ADS-B
03:50PM 39.6444 -105.1730 239° Southwest 481 554 38,000  Level FlightAware ADS-B
03:51PM 39.6096 -105.2470 240° Southwest 481 554 38,000  Level FlightAware ADS-B
03:51PM 39.5669 -105.3410 239° Southwest 480 552 38,000  Level FlightAware ADS-B
03:52PM 39.5322 -105.4150 239° Southwest 482 555 38,000  Level FlightAware ADS-B
03:52PM 39.4959 -105.4940 239° Southwest 481 554 38,000  Level FlightAware ADS-B
03:53PM 39.4615 -105.5680 239° Southwest 481 554 38,000  Level FlightAware ADS-B
03:53PM 39.4270 -105.6420 238° Southwest 482 555 38,000  Level FlightAware ADS-B
03:54PM 39.3920 -105.7150 239° Southwest 480 552 38,000  Level FlightAware ADS-B
03:54PM 39.3570 -105.7910 239° Southwest 479 551 38,000  Level FlightAware ADS-B
03:55PM 39.3226 -105.8640 238° Southwest 477 549 38,000  Level FlightAware ADS-B
03:55PM 39.2878 -105.9370 239° Southwest 476 548 38,000  Level FlightAware ADS-B
03:56PM 39.2530 -106.0120 239° Southwest 475 547 38,000  Level FlightAware ADS-B
03:56PM 39.2184 -106.0850 238° Southwest 474 545 38,000  Level FlightAware ADS-B
03:57PM 39.1826 -106.1590 238° Southwest 473 544 38,000  Level FlightAware ADS-B
03:57PM 39.1483 -106.2310 238° Southwest 472 543 38,000  Level FlightAware ADS-B
03:58PM 39.1139 -106.3030 239° Southwest 474 545 38,000  Level FlightAware ADS-B
03:58PM 39.0794 -106.3780 238° Southwest 474 545 38,000  Level FlightAware ADS-B
03:59PM 39.0437 -106.4520 238° Southwest 472 543 38,000  Level FlightAware ADS-B
03:59PM 39.0089 -106.5240 240° Southwest 472 543 38,000  Level FlightAware ADS-B
04:00PM 38.9972 -106.5500 245° Southwest 474 545 38,000  Level FlightAware ADS-B
04:00PM 38.9697 -106.6270 247° West 475 547 38,000  Level FlightAware ADS-B
04:01PM 38.9419 -106.7100 247° West 475 547 38,000  Level FlightAware ADS-B
04:01PM 38.9156 -106.7880 247° West 476 548 38,000  Level FlightAware ADS-B
04:02PM 38.8875 -106.8730 246° West 477 549 38,000  Level FlightAware ADS-B
04:02PM 38.8609 -106.9510 247° West 477 549 38,000  Level FlightAware ADS-B
04:03PM 38.8337 -107.0320 247° West 477 549 38,000  Level FlightAware ADS-B
04:03PM 38.8070 -107.1120 247° West 477 549 38,000  Level FlightAware ADS-B
04:04PM 38.7797 -107.1930 247° West 477 549 38,000  Level FlightAware ADS-B
04:04PM 38.7534 -107.2730 247° West 477 549 38,000  Level FlightAware ADS-B
04:06PM 38.6844 -107.4780 250° West 478 550 38,000  Level FlightAware ADS-B
04:06PM 38.6556 -107.5781 252° West 480 552 38,000  Level Denver Center
04:07PM 38.6175 -107.7314 250° West 475 547 38,000  Level Denver Center
04:08PM 38.5669 -107.9131 250° West 481 554 38,000  Level Denver Center
04:09PM 38.5225 -108.0656 250° West 479 551 38,000  Level Denver Center
04:10PM 38.4731 -108.2417 250° West 474 545 38,000  Level Denver Center
04:11PM 38.4297 -108.3911 250° West 470 541 38,000  Level Denver Center
04:12PM 38.3800 -108.5656 250° West 469 540 38,000  Level Denver Center
04:14PM 38.3372 -108.7164 250° West 470 541 38,000  Level Denver Center
04:15PM 38.2867 -108.8883 250° West 465 535 38,000  Level Denver Center
04:16PM 38.2433 -109.0367 250° West 467 537 38,000  Level Denver Center
04:17PM 38.1919 -109.2114 249° West 470 541 38,000  Level Denver Center
04:18PM 38.1481 -109.3600 250° West 470 541 38,000  Level Denver Center
04:19PM 38.0975 -109.5350 249° West 471 542 38,000  Level Denver Center
04:20PM 38.0525 -109.6825 249° West 470 541 38,000  Level Denver Center
04:21PM 38.0000 -109.8556 249° West 469 540 38,000 -360 Level Denver Center
04:22PM 37.9556 -110.0011 250° West 466 536 37,300 -900 Descending Denver Center
04:23PM 37.9069 -110.1722 249° West 464 534 36,200 -1,020 Descending Denver Center
04:24PM 37.8639 -110.3161 248° West 459 528 35,200 -960 Descending Denver Center
04:25PM 37.8108 -110.4833 249° West 459 528 34,300 -600 Descending Denver Center
04:26PM 37.7711 -110.6158 248° West 454 522 34,000 -180 Descending Denver Center
04:27PM 37.7244 -110.7647 248° West 451 519 34,000 -120 Level Denver Center
04:29PM 37.6217 -111.0919 248° West 447 514 33,800 -360 Descending Denver Center
04:30PM 37.5753 -111.2386 248° West 444 511 32,900 -900 Descending Denver Center
04:31PM 37.5292 -111.3847 248° West 442 509 32,000 -480 Descending Denver Center
04:32PM 37.4839 -111.5289 248° West 438 504 32,000  Level Denver Center
04:33PM 37.4375 -111.6719 248° West 435 501 32,000  Level Denver Center
04:34PM 37.3914 -111.8156 248° West 435 501 32,000  Level Denver Center
04:35PM 37.3464 -111.9589 248° West 434 499 32,000  Level Denver Center
04:36PM 37.3003 -112.1022 248° West 434 499 32,000  Level Denver Center
04:38PM 37.2436 -112.2753 246° West 436 502 32,000 -540 Level Denver Center
04:39PM 37.1847 -112.4447 248° West 438 504 30,900 -1,020 Descending Los Angeles Center
04:40PM 37.1486 -112.5583 248° West 438 504 29,800 -1,200 Descending Los Angeles Center
04:41PM 37.0986 -112.7117 247° West 438 504 28,500 -1,260 Descending Los Angeles Center
04:42PM 37.0525 -112.8489 248° West 438 504 27,300 -1,260 Descending Los Angeles Center
04:43PM 37.0100 -112.9806 247° West 432 497 26,000 -1,200 Descending Los Angeles Center
04:44PM 36.9633 -113.1150 247° West 426 490 25,000 -1,080 Descending Los Angeles Center
04:45PM 36.9147 -113.2572 247° West 415 478 23,900 -1,080 Descending Los Angeles Center
04:46PM 36.8717 -113.3833 248° West 409 471 22,900 -960 Descending Los Angeles Center
04:47PM 36.8306 -113.5092 242° Southwest 403 464 22,000 -960 Descending Los Angeles Center
04:48PM 36.7808 -113.6275 241° Southwest 397 457 21,000 -900 Descending Los Angeles Center
04:49PM 36.7292 -113.7431 241° Southwest 392 451 20,200 -780 Descending Los Angeles Center
04:50PM 36.6831 -113.8456 241° Southwest 392 451 19,500 -720 Descending Los Angeles Center
04:51PM 36.6308 -113.9608 241° Southwest 386 444 18,800 -780 Descending Los Angeles Center
04:52PM 36.5828 -114.0708 240° Southwest 380 437 18,000 -1,260 Descending Los Angeles Center
04:53PM 36.5322 -114.1781 243° Southwest 374 430 16,300 -1,980 Descending Los Angeles Center
04:53PM 36.5003 -114.2564 239° Southwest 364 419 14,900 -2,160 Descending Los Angeles Center
04:55PM 36.4375 -114.3867 237° Southwest 350 403 12,500 -1,440 Descending Los Angeles Center
04:56PM 36.3847 -114.4858 238° Southwest 341 392 11,700 -840 Descending Los Angeles Center
04:57PM 36.3397 -114.5744 251° West 305 351 10,900 -1,080 Descending Los Angeles Center
04:58PM 36.3139 -114.6678 252° West 278 320 9,600 -1,320 Descending Los Angeles Center
04:59PM 36.2900 -114.7611 252° West 259 298 8,300 -1,320 Descending Los Angeles Center
05:00PM 36.2700 -114.8361 246° West 232 267 7,000 -1,320 Descending Los Angeles Center
05:01PM 36.2475 -114.8981 248° West 215 247 5,800 -960 Descending Los Angeles Center
05:02PM 36.2253 -114.9656 248° West 202 232 5,200 -600 Descending Los Angeles Center
05:03PM 36.2050 -115.0275 239° Southwest 193 222 4,600 -300 Descending Los Angeles Center
05:04PM 36.1783 -115.0819 225° Southwest 194 223 4,600 -660 Level Los Angeles Center
05:05PM 36.1453 -115.1233 225° Southwest 167 192 3,300 -1,320 Descending Los Angeles Center